Time;durP1;ratioP1;P1;durP2;ratioP2;P2;SDS_P1;SDS_P2;PMS_P1;PMS_P2;Temp;Humidity;BMP_temperature;BMP_pressure;BME280_temperature;BME280_humidity;BME280_pressure;Samples;Min_cycle;Max_cycle;Signal;HPM_P1;HPM_P2
2022/03/17 00:00:55;;;;;;;31.80;18.33;;;10.90;99.90;;;;;;5020351;28;20677;-71
2022/03/17 00:03:23;;;;;;;29.10;17.67;;;10.80;99.90;;;;;;5021644;28;20235;-71
2022/03/17 00:05:50;;;;;;;29.70;17.83;;;10.80;99.90;;;;;;5016658;28;20248;-71
2022/03/17 00:08:17;;;;;;;28.57;16.87;;;10.70;99.90;;;;;;5020609;28;20227;-71
2022/03/17 00:10:43;;;;;;;31.93;18.40;;;10.70;99.90;;;;;;5017952;28;20209;-72
2022/03/17 00:13:11;;;;;;;33.03;18.90;;;10.60;99.90;;;;;;5021821;28;20201;-71
2022/03/17 00:15:40;;;;;;;30.97;17.83;;;10.60;99.90;;;;;;5019836;28;20212;-73
2022/03/17 00:18:07;;;;;;;30.73;17.87;;;10.60;99.90;;;;;;5016729;28;20235;-71
2022/03/17 00:20:34;;;;;;;30.90;18.17;;;10.60;99.90;;;;;;5015471;28;20199;-73
2022/03/17 00:23:01;;;;;;;30.13;17.47;;;10.60;99.90;;;;;;5016584;28;20199;-71
2022/03/17 00:25:29;;;;;;;33.00;18.53;;;10.70;99.90;;;;;;5025974;28;20200;-71
2022/03/17 00:27:57;;;;;;;30.30;17.93;;;10.70;99.90;;;;;;5018372;28;20738;-71
2022/03/17 00:30:24;;;;;;;31.00;17.93;;;10.70;99.90;;;;;;5019705;28;20204;-70
2022/03/17 00:32:51;;;;;;;31.13;18.43;;;10.70;99.90;;;;;;5019752;28;20188;-71
2022/03/17 00:35:36;;;;;;;37.47;20.17;;;10.80;99.90;;;;;;5018871;28;20292;-71
2022/03/17 00:38:03;;;;;;;32.67;18.50;;;10.80;99.90;;;;;;5018602;28;20595;-72
2022/03/17 00:40:30;;;;;;;31.97;19.33;;;10.80;99.90;;;;;;5025175;28;20215;-71
2022/03/17 00:42:57;;;;;;;31.57;18.60;;;10.80;99.90;;;;;;5025787;28;20202;-71
2022/03/17 00:45:24;;;;;;;34.03;19.90;;;10.70;99.90;;;;;;5012010;28;20253;-72
2022/03/17 00:47:51;;;;;;;31.53;19.33;;;10.90;99.90;;;;;;5039797;28;20223;-70
2022/03/17 00:50:18;;;;;;;32.43;18.77;;;10.80;99.90;;;;;;5020231;28;20214;-73
2022/03/17 00:52:44;;;;;;;32.93;19.23;;;10.90;99.90;;;;;;5018507;28;20259;-71
2022/03/17 00:55:11;;;;;;;33.03;18.93;;;10.80;99.90;;;;;;5012829;28;20197;-71
2022/03/17 00:57:39;;;;;;;31.07;18.90;;;10.90;99.90;;;;;;5022972;28;20638;-71
2022/03/17 01:00:08;;;;;;;32.07;18.17;;;10.90;99.90;;;;;;5024698;28;20741;-71
2022/03/17 01:02:36;;;;;;;33.83;19.97;;;10.90;99.90;;;;;;5022636;28;20197;-71
2022/03/17 01:05:03;;;;;;;30.63;18.47;;;10.80;99.90;;;;;;5039131;28;20193;-71
2022/03/17 01:07:32;;;;;;;33.87;19.87;;;10.70;99.90;;;;;;5025151;28;20280;-71
2022/03/17 01:09:59;;;;;;;34.20;19.90;;;10.70;99.90;;;;;;5030391;28;20249;-72
2022/03/17 01:12:26;;;;;;;33.27;20.17;;;10.60;99.90;;;;;;5023679;28;20200;-71
2022/03/17 01:14:53;;;;;;;34.23;20.47;;;10.60;99.90;;;;;;5022514;28;20194;-71
2022/03/17 01:17:19;;;;;;;32.47;19.80;;;10.70;99.90;;;;;;5021438;28;20227;-73
2022/03/17 01:19:46;;;;;;;32.13;19.67;;;10.60;99.90;;;;;;5025324;28;20254;-73
2022/03/17 01:22:13;;;;;;;32.40;19.40;;;10.60;99.90;;;;;;5018045;28;20661;-71
2022/03/17 01:24:39;;;;;;;34.77;19.20;;;10.60;99.90;;;;;;5024677;28;20193;-71
2022/03/17 01:27:06;;;;;;;33.80;20.00;;;10.50;99.90;;;;;;5021538;28;20199;-73
2022/03/17 01:29:32;;;;;;;34.77;19.77;;;10.50;99.90;;;;;;5024810;28;20196;-71
2022/03/17 01:31:59;;;;;;;34.03;19.07;;;10.70;99.90;;;;;;5026714;28;20223;-71
2022/03/17 01:34:26;;;;;;;33.90;18.80;;;10.60;99.90;;;;;;5025575;28;20202;-71
2022/03/17 01:36:53;;;;;;;32.00;19.20;;;10.60;99.90;;;;;;5019838;28;20273;-73
2022/03/17 01:39:20;;;;;;;30.33;19.03;;;10.50;99.90;;;;;;5021199;28;20227;-71
2022/03/17 01:41:46;;;;;;;36.67;21.43;;;10.50;99.90;;;;;;5019676;28;20205;-71
2022/03/17 01:44:13;;;;;;;32.83;19.20;;;10.60;99.90;;;;;;5027712;28;20194;-73
2022/03/17 01:49:25;;;;;;;32.60;19.53;;;10.50;99.90;;;;;;5024978;28;20720;-72
2022/03/17 01:51:52;;;;;;;33.97;20.67;;;10.60;99.90;;;;;;5024442;28;20779;-71
2022/03/17 01:54:19;;;;;;;33.93;20.40;;;10.70;99.90;;;;;;5023965;28;20261;-73
2022/03/17 01:57:05;;;;;;;32.53;19.30;;;10.60;99.90;;;;;;5023509;28;20231;-73
2022/03/17 01:59:33;;;;;;;33.03;19.70;;;10.60;99.90;;;;;;5017542;28;20221;-72
2022/03/17 02:02:00;;;;;;;30.43;18.00;;;10.50;99.90;;;;;;5029769;28;20201;-72
2022/03/17 02:04:27;;;;;;;31.73;20.13;;;10.40;99.90;;;;;;5022715;28;20208;-71
2022/03/17 02:06:54;;;;;;;34.70;21.13;;;10.40;99.90;;;;;;5024879;28;20242;-72
2022/03/17 02:09:24;;;;;;;34.27;19.17;;;10.40;99.90;;;;;;5024421;28;20229;-69
2022/03/17 02:15:06;;;;;;;33.13;19.67;;;10.40;99.90;;;;;;5023358;28;20197;-71
2022/03/17 02:17:39;;;;;;;34.37;20.13;;;10.50;99.90;;;;;;5020522;28;20235;-71
2022/03/17 02:20:09;;;;;;;32.37;20.60;;;10.50;99.90;;;;;;5025077;28;20227;-71
2022/03/17 02:22:50;;;;;;;33.93;20.63;;;10.70;99.90;;;;;;5022275;28;20202;-72
2022/03/17 02:25:36;;;;;;;35.50;20.23;;;10.70;99.90;;;;;;5026577;28;20215;-71
2022/03/17 02:28:05;;;;;;;32.80;19.53;;;10.60;99.90;;;;;;5020719;28;20274;-71
2022/03/17 02:30:34;;;;;;;35.67;20.17;;;10.50;99.90;;;;;;5023811;28;20192;-71
2022/03/17 02:33:16;;;;;;;32.63;20.10;;;10.50;99.90;;;;;;5022868;28;20202;-71
2022/03/17 02:35:44;;;;;;;36.70;21.33;;;10.40;99.90;;;;;;5026125;28;20199;-71
2022/03/17 02:38:14;;;;;;;36.27;21.03;;;10.40;99.90;;;;;;5020750;28;20236;-72
2022/03/17 02:40:43;;;;;;;34.73;20.60;;;10.30;99.90;;;;;;5020421;28;20227;-73
2022/03/17 02:43:14;;;;;;;34.73;20.33;;;10.30;99.90;;;;;;5022199;28;20254;-71
2022/03/17 02:45:42;;;;;;;34.47;21.57;;;10.30;99.90;;;;;;5038119;28;20201;-73
2022/03/17 02:48:09;;;;;;;36.93;20.60;;;10.20;99.90;;;;;;5025921;28;20216;-72
2022/03/17 02:50:37;;;;;;;36.83;21.40;;;10.30;99.90;;;;;;5018785;28;20210;-71
2022/03/17 02:53:08;;;;;;;38.80;20.97;;;10.30;99.90;;;;;;5015937;28;20202;-71
2022/03/17 02:55:40;;;;;;;35.20;21.20;;;10.30;99.90;;;;;;5026329;28;20616;-70
2022/03/17 02:58:09;;;;;;;36.17;21.10;;;10.40;99.90;;;;;;5019743;28;20228;-71
2022/03/17 03:00:36;;;;;;;36.97;20.93;;;10.30;99.90;;;;;;5022518;28;20227;-71
2022/03/17 03:03:06;;;;;;;34.50;20.80;;;10.30;99.90;;;;;;5028332;28;20663;-71
2022/03/17 03:05:33;;;;;;;37.40;22.33;;;10.30;99.90;;;;;;5028332;28;20676;-71
2022/03/17 03:08:02;;;;;;;37.03;21.07;;;10.40;99.90;;;;;;5021960;28;20217;-71
2022/03/17 03:10:29;;;;;;;40.40;23.33;;;10.40;99.90;;;;;;5018928;28;20830;-71
2022/03/17 03:12:55;;;;;;;39.10;22.33;;;10.30;99.90;;;;;;5023528;28;20206;-73
2022/03/17 03:15:22;;;;;;;35.00;21.23;;;10.50;99.90;;;;;;5021453;28;20201;-71
2022/03/17 03:17:49;;;;;;;36.60;21.77;;;10.40;99.90;;;;;;5024380;28;20219;-71
2022/03/17 03:20:16;;;;;;;37.83;21.57;;;10.40;99.90;;;;;;5017501;28;20227;-71
2022/03/17 03:22:42;;;;;;;38.60;22.00;;;10.40;99.90;;;;;;5022830;28;20204;-71
2022/03/17 03:25:09;;;;;;;33.93;20.57;;;10.40;99.90;;;;;;5026591;28;20194;-69
2022/03/17 03:27:39;;;;;;;38.13;21.47;;;10.40;99.90;;;;;;5023415;28;20225;-72
2022/03/17 03:30:12;;;;;;;38.07;22.17;;;10.30;99.90;;;;;;5029522;28;20196;-72
2022/03/17 03:32:47;;;;;;;42.53;22.53;;;10.30;99.90;;;;;;5019881;28;20207;-70
2022/03/17 03:37:59;;;;;;;36.43;22.27;;;10.40;99.90;;;;;;5017093;28;20224;-71
2022/03/17 03:40:26;;;;;;;37.63;22.10;;;10.20;99.90;;;;;;5016447;28;20232;-73
2022/03/17 03:42:52;;;;;;;34.57;21.67;;;10.30;99.90;;;;;;5021255;28;20203;-72
2022/03/17 03:45:19;;;;;;;39.33;22.07;;;10.20;99.90;;;;;;5031314;28;20194;-72
2022/03/17 03:47:46;;;;;;;39.57;21.47;;;10.30;99.90;;;;;;5021394;28;20273;-71
2022/03/17 03:50:13;;;;;;;41.90;22.20;;;10.30;99.90;;;;;;5029881;28;20218;-72
2022/03/17 03:52:40;;;;;;;38.17;22.10;;;10.30;99.90;;;;;;5020747;28;20263;-72
2022/03/17 03:55:07;;;;;;;38.40;21.80;;;10.20;99.90;;;;;;5022395;28;20920;-71
2022/03/17 03:57:34;;;;;;;40.47;23.33;;;10.20;99.90;;;;;;5037491;28;20220;-71
2022/03/17 04:00:01;;;;;;;36.50;21.50;;;10.30;99.90;;;;;;5021463;28;20223;-71
2022/03/17 04:02:27;;;;;;;36.73;22.57;;;10.20;99.90;;;;;;5020938;28;20217;-71
2022/03/17 04:04:54;;;;;;;36.37;22.17;;;10.20;99.90;;;;;;5017246;28;20196;-72
2022/03/17 04:07:21;;;;;;;36.20;21.70;;;10.40;99.90;;;;;;5021301;28;20216;-71
2022/03/17 04:09:47;;;;;;;41.67;22.73;;;10.60;99.90;;;;;;5022476;28;20336;-72
2022/03/17 04:12:14;;;;;;;37.03;22.37;;;10.40;99.90;;;;;;5019459;28;20223;-71
2022/03/17 04:14:41;;;;;;;35.87;22.17;;;10.30;99.90;;;;;;5020247;28;20242;-73
2022/03/17 04:17:13;;;;;;;37.43;22.27;;;10.40;99.90;;;;;;5026448;28;20203;-71
2022/03/17 04:19:40;;;;;;;38.40;21.73;;;10.30;99.90;;;;;;5026945;28;20210;-71
2022/03/17 04:22:07;;;;;;;39.30;22.40;;;10.20;99.90;;;;;;5017359;28;20195;-71
2022/03/17 04:24:34;;;;;;;39.00;21.73;;;10.10;99.90;;;;;;5023576;28;20191;-72
2022/03/17 04:27:01;;;;;;;39.10;22.20;;;10.10;99.90;;;;;;5022996;28;20197;-71
2022/03/17 04:29:28;;;;;;;37.07;21.33;;;10.30;99.90;;;;;;5020590;28;20723;-71
2022/03/17 04:31:54;;;;;;;37.17;21.87;;;10.30;99.90;;;;;;5026236;28;20674;-71
2022/03/17 04:34:21;;;;;;;40.50;22.77;;;10.40;99.90;;;;;;5038693;28;20695;-71
2022/03/17 04:36:48;;;;;;;39.00;21.77;;;10.30;99.90;;;;;;5023984;28;20197;-71
2022/03/17 04:39:14;;;;;;;37.37;21.93;;;10.30;99.90;;;;;;5023224;28;20246;-73
2022/03/17 04:41:41;;;;;;;41.90;22.57;;;10.40;99.90;;;;;;5021703;28;20208;-71
2022/03/17 04:44:09;;;;;;;37.87;22.27;;;10.30;99.90;;;;;;5024808;28;20200;-68
2022/03/17 04:46:36;;;;;;;36.70;21.80;;;10.40;99.90;;;;;;5026786;28;20659;-71
2022/03/17 04:49:03;;;;;;;37.07;21.83;;;10.30;99.90;;;;;;5028385;28;20858;-71
2022/03/17 04:51:31;;;;;;;35.87;20.90;;;10.20;99.90;;;;;;5022344;28;20199;-70
2022/03/17 04:53:58;;;;;;;34.60;20.23;;;10.20;99.90;;;;;;5022370;28;20202;-73
2022/03/17 04:56:25;;;;;;;37.33;21.67;;;10.10;99.90;;;;;;5029313;28;20196;-73
2022/03/17 04:58:52;;;;;;;37.27;21.63;;;10.10;99.90;;;;;;5023701;28;20209;-71
2022/03/17 05:01:19;;;;;;;37.77;21.87;;;10.20;99.90;;;;;;5024052;28;20230;-71
2022/03/17 05:03:46;;;;;;;39.60;21.60;;;10.20;99.90;;;;;;5028287;28;20207;-71
2022/03/17 05:06:15;;;;;;;41.40;21.60;;;10.10;99.90;;;;;;5024483;28;20200;-71
2022/03/17 05:08:42;;;;;;;37.27;21.40;;;10.10;99.90;;;;;;5025724;28;20739;-73
2022/03/17 05:11:10;;;;;;;39.47;22.40;;;10.10;99.90;;;;;;5025295;28;20613;-71
2022/03/17 05:13:39;;;;;;;36.97;22.60;;;10.20;99.90;;;;;;5022032;28;20220;-72
2022/03/17 05:16:07;;;;;;;34.77;20.93;;;10.20;99.90;;;;;;5021681;28;20230;-71
2022/03/17 05:18:34;;;;;;;39.37;22.23;;;10.20;99.90;;;;;;5023973;28;20243;-72
2022/03/17 05:21:01;;;;;;;34.03;20.00;;;10.20;99.90;;;;;;5024195;28;20215;-71
2022/03/17 05:23:30;;;;;;;38.77;22.80;;;10.20;99.90;;;;;;5027543;28;20246;-71
2022/03/17 05:25:58;;;;;;;34.20;20.33;;;10.20;99.90;;;;;;5020459;28;20199;-71
2022/03/17 05:28:24;;;;;;;34.13;20.57;;;10.20;99.90;;;;;;5027175;28;20216;-71
2022/03/17 05:30:51;;;;;;;39.60;21.53;;;10.00;99.90;;;;;;5022414;28;20199;-71
2022/03/17 05:33:18;;;;;;;37.97;21.07;;;9.90;99.90;;;;;;5025899;28;20230;-73
2022/03/17 05:35:45;;;;;;;37.60;21.77;;;9.80;99.90;;;;;;5023250;28;20199;-71
2022/03/17 05:38:12;;;;;;;32.07;19.67;;;9.80;99.90;;;;;;5026481;28;20218;-71
2022/03/17 05:40:39;;;;;;;34.47;20.47;;;9.80;99.90;;;;;;5020080;28;20216;-71
2022/03/17 05:43:09;;;;;;;37.27;21.23;;;9.80;99.90;;;;;;5030314;28;20211;-71
2022/03/17 05:45:37;;;;;;;38.03;21.77;;;9.80;99.90;;;;;;5021294;28;20296;-71
2022/03/17 05:48:05;;;;;;;36.20;21.37;;;9.70;99.90;;;;;;5023551;28;20647;-71
2022/03/17 05:50:39;;;;;;;38.27;21.87;;;9.70;99.90;;;;;;5022307;28;20193;-71
2022/03/17 05:53:08;;;;;;;41.93;23.03;;;9.80;99.90;;;;;;5030635;28;20585;-71
2022/03/17 05:55:35;;;;;;;39.27;23.23;;;9.90;99.90;;;;;;5021730;28;20616;-71
2022/03/17 05:58:02;;;;;;;37.63;22.27;;;9.90;99.90;;;;;;5019853;28;20223;-71
2022/03/17 06:00:30;;;;;;;38.67;23.13;;;9.90;99.90;;;;;;5028144;28;20216;-71
2022/03/17 06:02:58;;;;;;;38.97;22.90;;;9.80;99.90;;;;;;5020904;28;20217;-71
2022/03/17 06:05:25;;;;;;;43.07;22.90;;;9.80;99.90;;;;;;5029225;28;20202;-71
2022/03/17 06:07:55;;;;;;;42.23;23.60;;;10.00;99.90;;;;;;5014441;28;20303;-72
2022/03/17 06:10:27;;;;;;;39.00;22.07;;;10.00;99.90;;;;;;5022554;28;20203;-75
2022/03/17 06:12:54;;;;;;;35.97;21.67;;;9.90;99.90;;;;;;5017309;28;20258;-70
2022/03/17 06:15:23;;;;;;;40.33;22.77;;;9.80;99.90;;;;;;5024263;28;20200;-72
2022/03/17 06:17:58;;;;;;;37.00;21.20;;;9.70;99.90;;;;;;5017945;28;20663;-72
2022/03/17 06:20:27;;;;;;;36.40;20.33;;;9.60;99.90;;;;;;5020139;28;20299;-72
2022/03/17 06:22:56;;;;;;;36.63;21.57;;;9.60;99.90;;;;;;5024328;28;20227;-72
2022/03/17 06:25:25;;;;;;;37.03;21.17;;;9.70;99.90;;;;;;5020161;28;20193;-73
2022/03/17 06:27:52;;;;;;;35.57;21.67;;;9.80;99.90;;;;;;5023507;28;20227;-72
2022/03/17 06:30:23;;;;;;;37.33;21.27;;;9.80;99.90;;;;;;5023969;28;20215;-73
2022/03/17 06:32:51;;;;;;;39.63;21.80;;;9.80;99.90;;;;;;5019244;28;20196;-75
2022/03/17 06:35:20;;;;;;;39.03;22.60;;;10.00;99.90;;;;;;5015324;28;20200;-73
2022/03/17 06:37:49;;;;;;;36.87;21.53;;;10.10;99.90;;;;;;5024197;28;20220;-73
2022/03/17 06:40:17;;;;;;;37.90;22.00;;;10.00;99.90;;;;;;5020114;28;20223;-76
2022/03/17 06:42:44;;;;;;;40.00;22.57;;;10.00;99.90;;;;;;5020684;28;20193;-73
2022/03/17 06:45:12;;;;;;;35.63;21.80;;;10.10;99.90;;;;;;5016350;28;20558;-75
2022/03/17 06:47:40;;;;;;;39.87;22.83;;;10.20;99.90;;;;;;5022281;28;20259;-73
2022/03/17 06:50:08;;;;;;;37.60;21.63;;;10.40;99.90;;;;;;5016314;28;20220;-76
2022/03/17 06:52:34;;;;;;;38.37;21.93;;;10.50;99.90;;;;;;5025991;28;20223;-73
2022/03/17 06:55:01;;;;;;;38.90;22.30;;;10.50;99.90;;;;;;5021158;28;20193;-72
2022/03/17 06:57:28;;;;;;;38.33;22.60;;;10.50;99.90;;;;;;5015313;28;20219;-74
2022/03/17 06:59:55;;;;;;;39.30;22.30;;;10.60;99.90;;;;;;5021852;28;20228;-74
2022/03/17 07:02:22;;;;;;;35.73;21.40;;;10.50;99.90;;;;;;5012835;28;20202;-75
2022/03/17 07:04:50;;;;;;;40.37;23.20;;;10.50;99.90;;;;;;5021702;28;20544;-73
2022/03/17 07:07:16;;;;;;;39.93;22.23;;;10.50;99.90;;;;;;5017874;28;20190;-74
2022/03/17 07:09:43;;;;;;;37.57;22.17;;;10.70;99.90;;;;;;5015832;28;20221;-72
2022/03/17 07:12:11;;;;;;;41.33;22.40;;;10.80;99.90;;;;;;5025492;28;20200;-73
2022/03/17 07:14:39;;;;;;;37.00;22.37;;;10.70;99.90;;;;;;5022041;28;20196;-73
2022/03/17 07:17:06;;;;;;;41.83;23.07;;;10.90;99.90;;;;;;5021917;28;20201;-73
2022/03/17 07:19:34;;;;;;;39.03;21.67;;;10.90;99.90;;;;;;5018564;28;20452;-73
2022/03/17 07:22:02;;;;;;;38.27;21.47;;;11.00;99.90;;;;;;5014807;28;20230;-76
2022/03/17 07:24:29;;;;;;;38.70;21.43;;;11.10;99.90;;;;;;5018903;28;20189;-75
2022/03/17 07:26:58;;;;;;;41.00;22.20;;;11.20;99.90;;;;;;5015226;28;20201;-73
2022/03/17 07:29:25;;;;;;;36.80;22.13;;;11.20;99.90;;;;;;5022531;28;20661;-72
2022/03/17 07:31:56;;;;;;;38.40;22.33;;;11.10;99.90;;;;;;5022337;28;20247;-70
2022/03/17 07:34:24;;;;;;;43.33;22.60;;;11.20;99.90;;;;;;5021202;28;20204;-72
2022/03/17 07:36:51;;;;;;;36.27;21.70;;;11.30;99.90;;;;;;5021522;28;20277;-72
2022/03/17 07:39:18;;;;;;;37.63;22.47;;;11.40;99.90;;;;;;5020651;28;20313;-74
2022/03/17 07:41:45;;;;;;;34.63;21.33;;;11.40;99.90;;;;;;5022522;28;20225;-73
2022/03/17 07:44:12;;;;;;;36.83;22.07;;;11.40;99.90;;;;;;5016492;28;20247;-75
2022/03/17 07:46:39;;;;;;;35.03;21.73;;;11.30;99.90;;;;;;5019737;28;20199;-72
2022/03/17 07:49:06;;;;;;;37.83;22.27;;;11.30;99.90;;;;;;5017366;28;20768;-71
2022/03/17 07:51:32;;;;;;;36.80;22.00;;;11.40;99.90;;;;;;5023086;28;20211;-74
2022/03/17 07:53:59;;;;;;;36.80;21.80;;;11.50;99.90;;;;;;5026204;28;20429;-72
2022/03/17 07:56:26;;;;;;;35.07;21.13;;;11.70;99.90;;;;;;5019018;28;20203;-74
2022/03/17 07:58:52;;;;;;;39.60;23.07;;;11.80;99.90;;;;;;5017904;28;20663;-76
2022/03/17 08:01:24;;;;;;;40.30;24.93;;;11.90;99.90;;;;;;5025330;28;20694;-74
2022/03/17 08:03:54;;;;;;;33.77;21.03;;;12.30;99.90;;;;;;5020749;28;20223;-74
2022/03/17 08:06:25;;;;;;;35.10;21.70;;;12.40;99.90;;;;;;5014825;28;20194;-71
2022/03/17 08:08:52;;;;;;;40.13;22.10;;;12.50;99.90;;;;;;5018567;28;20219;-77
2022/03/17 08:11:19;;;;;;;33.77;21.47;;;12.50;99.90;;;;;;5021724;28;20205;-76
2022/03/17 08:13:46;;;;;;;32.97;20.43;;;12.40;99.90;;;;;;5020379;28;20217;-72
2022/03/17 08:16:13;;;;;;;38.53;22.53;;;12.40;99.90;;;;;;5018520;28;20216;-74
2022/03/17 08:18:39;;;;;;;36.43;21.40;;;12.40;99.90;;;;;;5020806;28;20220;-74
2022/03/17 08:21:06;;;;;;;37.87;22.83;;;12.50;99.90;;;;;;5015770;28;20714;-74
2022/03/17 08:23:33;;;;;;;34.37;20.43;;;12.50;99.90;;;;;;5021324;28;20261;-73
2022/03/17 08:26:00;;;;;;;36.60;21.23;;;12.50;99.90;;;;;;5016833;28;20199;-73
2022/03/17 08:28:26;;;;;;;35.73;20.30;;;12.60;99.90;;;;;;5016468;28;20559;-75
2022/03/17 08:30:53;;;;;;;32.83;20.07;;;12.60;99.90;;;;;;5016982;28;20208;-73
2022/03/17 08:33:20;;;;;;;37.30;21.97;;;12.60;99.90;;;;;;5018008;28;20257;-76
2022/03/17 08:35:47;;;;;;;35.60;21.43;;;12.60;99.90;;;;;;5018562;28;20212;-74
2022/03/17 08:38:13;;;;;;;32.93;18.83;;;12.50;99.90;;;;;;5026081;28;20212;-74
2022/03/17 08:40:41;;;;;;;33.47;20.00;;;12.50;99.90;;;;;;5022287;28;20215;-75
2022/03/17 08:43:12;;;;;;;34.63;21.30;;;12.60;99.90;;;;;;5024383;28;20294;-75
2022/03/17 08:51:12;;;;;;;32.10;20.23;;;12.60;99.90;;;;;;5023617;28;20197;-75
2022/03/17 08:53:39;;;;;;;36.20;21.57;;;12.70;99.90;;;;;;5022785;28;20204;-73
2022/03/17 08:56:06;;;;;;;33.10;21.00;;;12.80;99.90;;;;;;5016276;28;20281;-74
2022/03/17 08:58:35;;;;;;;33.57;20.43;;;12.90;99.90;;;;;;5019201;28;20224;-75
2022/03/17 09:01:02;;;;;;;35.17;20.53;;;12.90;99.90;;;;;;5018804;28;20634;-72
2022/03/17 09:03:30;;;;;;;34.30;20.27;;;13.10;99.90;;;;;;5020682;28;20207;-76
2022/03/17 09:05:58;;;;;;;36.53;21.17;;;13.30;99.90;;;;;;5018480;28;20207;-77
2022/03/17 09:08:26;;;;;;;34.07;20.47;;;13.40;99.90;;;;;;5024837;28;20621;-77
2022/03/17 09:10:55;;;;;;;36.30;20.57;;;13.40;99.90;;;;;;5019453;28;20600;-78
2022/03/17 09:13:25;;;;;;;33.23;19.87;;;13.40;99.90;;;;;;5020372;28;20198;-78
2022/03/17 09:15:53;;;;;;;30.17;19.27;;;13.20;99.90;;;;;;5021754;28;20199;-79
2022/03/17 09:18:21;;;;;;;29.60;18.73;;;13.20;99.90;;;;;;5023244;28;20606;-77
2022/03/17 09:20:49;;;;;;;30.87;19.60;;;13.10;99.90;;;;;;5039405;28;20288;-73
2022/03/17 09:23:16;;;;;;;32.90;20.63;;;13.20;99.90;;;;;;5029258;28;20653;-74
2022/03/17 09:25:43;;;;;;;33.03;19.87;;;13.20;99.90;;;;;;5020907;28;20203;-74
2022/03/17 09:28:10;;;;;;;31.67;19.47;;;13.00;99.90;;;;;;5019505;28;20213;-73
2022/03/17 09:30:37;;;;;;;33.53;21.00;;;12.90;99.90;;;;;;5026157;28;20208;-73
2022/03/17 09:33:05;;;;;;;30.80;19.87;;;12.90;99.90;;;;;;5024215;28;20234;-75
2022/03/17 09:35:34;;;;;;;35.30;20.13;;;12.70;99.90;;;;;;5018339;28;20740;-75
2022/03/17 09:38:02;;;;;;;31.33;19.23;;;12.70;99.90;;;;;;5029252;28;20219;-71
2022/03/17 09:40:29;;;;;;;31.83;19.97;;;12.60;99.90;;;;;;5016798;28;20590;-74
2022/03/17 09:43:18;;;;;;;33.43;19.83;;;12.70;99.90;;;;;;5027399;28;20221;-74
2022/03/17 09:45:43;;;;;;;35.00;20.50;;;12.90;99.90;;;;;;5019493;28;20305;-76
2022/03/17 09:48:12;;;;;;;33.50;20.33;;;12.70;99.90;;;;;;5018941;28;20571;-75
2022/03/17 09:50:39;;;;;;;32.67;20.17;;;12.60;99.90;;;;;;5020515;28;20747;-77
2022/03/17 09:53:07;;;;;;;36.33;21.07;;;12.50;99.90;;;;;;5026615;28;20408;-74
2022/03/17 09:55:35;;;;;;;30.30;19.13;;;12.50;99.90;;;;;;5022744;28;20208;-72
2022/03/17 09:58:03;;;;;;;38.57;22.17;;;12.50;99.90;;;;;;5023018;28;20267;-75
2022/03/17 10:00:49;;;;;;;33.07;19.30;;;12.70;99.90;;;;;;5042533;28;20203;-77
2022/03/17 10:03:22;;;;;;;35.67;20.67;;;12.60;99.90;;;;;;5022795;28;20570;-73
2022/03/17 10:05:49;;;;;;;34.30;20.33;;;12.70;99.90;;;;;;5037403;28;20194;-72
2022/03/17 10:08:20;;;;;;;33.07;19.53;;;12.80;99.90;;;;;;5020426;28;20259;-74
2022/03/17 10:10:49;;;;;;;31.93;20.03;;;13.00;99.90;;;;;;5028968;28;20242;-75
2022/03/17 10:13:19;;;;;;;33.70;21.60;;;13.00;99.90;;;;;;5019437;28;20245;-74
2022/03/17 10:15:47;;;;;;;35.70;20.83;;;13.00;99.90;;;;;;5020223;28;20222;-72
2022/03/17 10:18:26;;;;;;;33.93;19.80;;;12.90;99.90;;;;;;5024059;28;20698;-72
2022/03/17 10:21:13;;;;;;;32.10;19.80;;;12.80;99.90;;;;;;5026788;28;20216;-73
2022/03/17 10:23:45;;;;;;;38.33;20.73;;;13.00;99.90;;;;;;5019652;28;20199;-72
2022/03/17 10:26:28;;;;;;;34.67;20.47;;;12.70;99.90;;;;;;5020461;28;20265;-73
2022/03/17 10:29:07;;;;;;;30.97;18.50;;;12.50;99.90;;;;;;5019200;28;20231;-73
2022/03/17 10:31:52;;;;;;;30.23;17.23;;;12.00;99.90;;;;;;5026986;28;20200;-74
2022/03/17 10:34:20;;;;;;;32.57;18.60;;;11.40;99.90;;;;;;5021466;28;20207;-76
2022/03/17 10:36:47;;;;;;;35.93;19.50;;;11.10;99.90;;;;;;5025954;28;20203;-72
2022/03/17 10:39:15;;;;;;;28.73;16.00;;;10.80;99.90;;;;;;5023824;28;20220;-72
2022/03/17 10:41:44;;;;;;;28.33;15.40;;;10.60;99.90;;;;;;5020296;28;20254;-71
2022/03/17 10:44:15;;;;;;;28.57;15.83;;;10.50;99.90;;;;;;5021541;28;20213;-71
2022/03/17 10:47:01;;;;;;;28.70;16.20;;;10.40;99.90;;;;;;5022490;28;20203;-71
2022/03/17 10:49:28;;;;;;;30.27;16.47;;;10.30;99.90;;;;;;5023991;28;20281;-71
2022/03/17 10:51:56;;;;;;;28.50;16.07;;;10.30;99.90;;;;;;5026687;28;20204;-73
2022/03/17 10:54:24;;;;;;;31.50;16.83;;;10.30;99.90;;;;;;5025567;28;20676;-75
2022/03/17 10:57:18;;;;;;;30.87;16.73;;;10.40;99.90;;;;;;5026305;28;20210;-71
2022/03/17 10:59:47;;;;;;;34.07;16.37;;;10.40;99.90;;;;;;5023483;28;20214;-73
2022/03/17 11:02:17;;;;;;;35.03;17.73;;;10.20;99.90;;;;;;5018482;28;20228;-71
2022/03/17 11:04:46;;;;;;;37.30;16.73;;;10.10;99.90;;;;;;5022064;28;20467;-75
2022/03/17 11:07:14;;;;;;;35.73;17.83;;;10.00;99.90;;;;;;5023851;28;20197;-72
2022/03/17 11:09:42;;;;;;;40.50;18.13;;;10.00;99.90;;;;;;5025187;28;20191;-71
2022/03/17 11:12:12;;;;;;;34.40;17.97;;;10.00;99.90;;;;;;5020191;28;20207;-71
2022/03/17 11:14:44;;;;;;;36.37;18.03;;;10.00;99.90;;;;;;5019860;28;20594;-69
2022/03/17 11:17:17;;;;;;;37.37;17.60;;;10.10;99.90;;;;;;5015131;28;20619;-71
2022/03/17 11:19:45;;;;;;;34.57;15.47;;;10.00;99.90;;;;;;5023269;28;20213;-71
2022/03/17 11:22:22;;;;;;;30.70;15.20;;;10.00;99.90;;;;;;5021221;28;20725;-70
2022/03/17 11:25:25;;;;;;;32.67;16.13;;;9.90;99.90;;;;;;5040192;28;20200;-72
2022/03/17 11:28:01;;;;;;;25.90;13.53;;;9.90;99.90;;;;;;5023178;28;20637;-71
2022/03/17 11:30:42;;;;;;;28.73;15.00;;;9.90;99.90;;;;;;5029488;28;20199;-71
2022/03/17 11:33:33;;;;;;;27.23;14.10;;;9.80;99.90;;;;;;5023526;28;20216;-72
2022/03/17 11:36:10;;;;;;;26.43;13.23;;;9.90;99.90;;;;;;5016933;28;20701;-69
2022/03/17 11:38:39;;;;;;;26.03;13.40;;;10.00;99.90;;;;;;5030443;28;20342;-71
2022/03/17 11:41:19;;;;;;;26.73;13.60;;;10.10;99.90;;;;;;5024629;28;20195;-72
2022/03/17 11:43:45;;;;;;;25.47;13.17;;;10.20;99.90;;;;;;5028530;28;20194;-72
2022/03/17 11:46:18;;;;;;;20.67;11.80;;;10.30;99.90;;;;;;5025095;28;20199;-73
2022/03/17 11:48:47;;;;;;;20.50;11.97;;;10.40;99.90;;;;;;5022239;28;20221;-71
2022/03/17 11:51:15;;;;;;;22.50;12.27;;;10.30;99.90;;;;;;5021663;28;20193;-72
2022/03/17 11:53:51;;;;;;;22.47;12.60;;;10.40;99.90;;;;;;5011560;28;20690;-71
2022/03/17 11:56:35;;;;;;;21.80;12.73;;;10.20;99.90;;;;;;5009492;28;20203;-72
2022/03/17 11:59:02;;;;;;;23.10;13.13;;;10.10;99.90;;;;;;5021669;28;20293;-72
2022/03/17 12:01:34;;;;;;;20.63;12.33;;;10.00;99.90;;;;;;5027448;28;20256;-72
2022/03/17 12:04:03;;;;;;;23.33;12.77;;;10.10;99.90;;;;;;5035522;28;20195;-74
2022/03/17 12:06:35;;;;;;;21.47;12.47;;;10.20;99.90;;;;;;5019971;28;20335;-75
2022/03/17 12:09:04;;;;;;;20.20;11.13;;;10.30;99.90;;;;;;5014156;28;20219;-72
2022/03/17 12:11:36;;;;;;;20.90;11.70;;;10.30;99.90;;;;;;5017479;28;20196;-73
2022/03/17 12:14:14;;;;;;;19.93;11.57;;;10.20;99.90;;;;;;5012795;28;20200;-73
2022/03/17 12:16:44;;;;;;;19.40;12.10;;;10.10;99.90;;;;;;5016173;28;20206;-75
2022/03/17 12:19:31;;;;;;;18.70;10.87;;;10.10;99.90;;;;;;5018870;28;20733;-72
2022/03/17 12:21:57;;;;;;;20.00;10.67;;;10.20;99.90;;;;;;5023164;28;20226;-72
2022/03/17 12:24:38;;;;;;;16.40;10.10;;;10.20;99.90;;;;;;5023173;28;20628;-71
2022/03/17 12:27:28;;;;;;;17.90;11.17;;;10.20;99.90;;;;;;5012451;28;20203;-74
2022/03/17 12:30:03;;;;;;;17.90;10.00;;;10.20;99.90;;;;;;5018164;28;20195;-75
2022/03/17 12:32:37;;;;;;;19.10;10.63;;;10.20;99.90;;;;;;5020502;28;20258;-72
2022/03/17 12:35:05;;;;;;;16.83;10.10;;;10.40;99.90;;;;;;5022898;28;20203;-73
2022/03/17 12:37:33;;;;;;;13.33;9.10;;;10.40;99.90;;;;;;5021686;28;20219;-75
2022/03/17 12:40:02;;;;;;;14.73;8.77;;;10.40;99.90;;;;;;5021476;28;20286;-70
2022/03/17 12:42:44;;;;;;;16.73;9.90;;;10.30;99.90;;;;;;5023404;28;20219;-77
2022/03/17 12:45:13;;;;;;;16.80;9.67;;;10.40;99.90;;;;;;5018584;28;20199;-72
2022/03/17 12:47:46;;;;;;;14.43;9.27;;;10.40;99.90;;;;;;5018869;28;20219;-73
2022/03/17 12:50:15;;;;;;;14.63;9.07;;;10.50;99.90;;;;;;5023643;28;20203;-72
2022/03/17 12:52:49;;;;;;;16.23;9.20;;;10.50;99.90;;;;;;5026663;28;20592;-73